sensor_id;sensor_type;location;lat;lon;timestamp;P1;durP1;ratioP1;P2;durP2;ratioP2
12163;SDS011;6145;50.192;10.064;2022-10-31T00:00:44;15.83;;;7.00;;
12163;SDS011;6145;50.192;10.064;2022-10-31T00:03:11;12.90;;;6.30;;
12163;SDS011;6145;50.192;10.064;2022-10-31T00:05:40;17.90;;;6.70;;
12163;SDS011;6145;50.192;10.064;2022-10-31T00:08:07;19.60;;;6.50;;
12163;SDS011;6145;50.192;10.064;2022-10-31T00:10:36;14.00;;;7.17;;
12163;SDS011;6145;50.192;10.064;2022-10-31T00:13:04;16.90;;;6.80;;
12163;SDS011;6145;50.192;10.064;2022-10-31T00:15:31;10.53;;;6.20;;
12163;SDS011;6145;50.192;10.064;2022-10-31T00:18:00;11.83;;;6.10;;
12163;SDS011;6145;50.192;10.064;2022-10-31T00:20:27;20.53;;;7.10;;
12163;SDS011;6145;50.192;10.064;2022-10-31T00:22:56;15.90;;;6.80;;
12163;SDS011;6145;50.192;10.064;2022-10-31T00:25:23;13.40;;;7.07;;
12163;SDS011;6145;50.192;10.064;2022-10-31T00:27:50;15.87;;;6.90;;
12163;SDS011;6145;50.192;10.064;2022-10-31T00:30:17;14.60;;;7.63;;
12163;SDS011;6145;50.192;10.064;2022-10-31T00:32:44;16.70;;;6.47;;
12163;SDS011;6145;50.192;10.064;2022-10-31T00:35:12;19.27;;;6.70;;
12163;SDS011;6145;50.192;10.064;2022-10-31T00:37:40;21.57;;;7.17;;
12163;SDS011;6145;50.192;10.064;2022-10-31T00:40:07;10.87;;;5.53;;
12163;SDS011;6145;50.192;10.064;2022-10-31T00:42:35;10.43;;;6.17;;
12163;SDS011;6145;50.192;10.064;2022-10-31T00:45:02;17.27;;;5.93;;
12163;SDS011;6145;50.192;10.064;2022-10-31T00:47:29;8.97;;;5.17;;
12163;SDS011;6145;50.192;10.064;2022-10-31T00:49:55;9.27;;;5.10;;
12163;SDS011;6145;50.192;10.064;2022-10-31T00:52:24;29.03;;;6.37;;
12163;SDS011;6145;50.192;10.064;2022-10-31T00:54:50;15.37;;;4.97;;
12163;SDS011;6145;50.192;10.064;2022-10-31T00:57:17;9.43;;;5.03;;
12163;SDS011;6145;50.192;10.064;2022-10-31T00:59:44;12.07;;;5.97;;
12163;SDS011;6145;50.192;10.064;2022-10-31T01:02:11;8.90;;;5.20;;
12163;SDS011;6145;50.192;10.064;2022-10-31T01:04:37;11.27;;;4.70;;
12163;SDS011;6145;50.192;10.064;2022-10-31T01:07:04;12.47;;;4.83;;
12163;SDS011;6145;50.192;10.064;2022-10-31T01:09:33;15.77;;;5.00;;
12163;SDS011;6145;50.192;10.064;2022-10-31T01:12:00;7.53;;;4.73;;
12163;SDS011;6145;50.192;10.064;2022-10-31T01:14:26;9.57;;;5.17;;
12163;SDS011;6145;50.192;10.064;2022-10-31T01:16:53;8.60;;;5.47;;
12163;SDS011;6145;50.192;10.064;2022-10-31T01:19:20;9.17;;;5.50;;
12163;SDS011;6145;50.192;10.064;2022-10-31T01:21:47;7.70;;;5.00;;
12163;SDS011;6145;50.192;10.064;2022-10-31T01:24:13;6.83;;;4.63;;
12163;SDS011;6145;50.192;10.064;2022-10-31T01:26:42;11.63;;;5.00;;
12163;SDS011;6145;50.192;10.064;2022-10-31T01:29:08;15.03;;;6.17;;
12163;SDS011;6145;50.192;10.064;2022-10-31T01:31:36;8.53;;;5.13;;
12163;SDS011;6145;50.192;10.064;2022-10-31T01:34:05;7.93;;;4.87;;
12163;SDS011;6145;50.192;10.064;2022-10-31T01:36:33;10.00;;;5.77;;
12163;SDS011;6145;50.192;10.064;2022-10-31T01:39:02;8.73;;;5.20;;
12163;SDS011;6145;50.192;10.064;2022-10-31T01:41:31;12.07;;;5.23;;
12163;SDS011;6145;50.192;10.064;2022-10-31T01:44:02;16.33;;;6.67;;
12163;SDS011;6145;50.192;10.064;2022-10-31T01:46:50;10.20;;;5.00;;
12163;SDS011;6145;50.192;10.064;2022-10-31T01:49:21;17.90;;;5.83;;
12163;SDS011;6145;50.192;10.064;2022-10-31T01:51:51;12.43;;;5.10;;
12163;SDS011;6145;50.192;10.064;2022-10-31T01:54:22;9.70;;;5.27;;
12163;SDS011;6145;50.192;10.064;2022-10-31T01:56:52;16.60;;;5.40;;
12163;SDS011;6145;50.192;10.064;2022-10-31T01:59:23;14.50;;;5.10;;
12163;SDS011;6145;50.192;10.064;2022-10-31T02:01:53;12.90;;;5.30;;
12163;SDS011;6145;50.192;10.064;2022-10-31T02:04:20;19.90;;;6.27;;
12163;SDS011;6145;50.192;10.064;2022-10-31T02:06:51;15.43;;;5.17;;
12163;SDS011;6145;50.192;10.064;2022-10-31T02:09:22;16.97;;;4.80;;
12163;SDS011;6145;50.192;10.064;2022-10-31T02:11:49;12.03;;;5.10;;
12163;SDS011;6145;50.192;10.064;2022-10-31T02:14:17;16.97;;;5.40;;
12163;SDS011;6145;50.192;10.064;2022-10-31T02:16:48;12.30;;;4.93;;
12163;SDS011;6145;50.192;10.064;2022-10-31T02:19:16;18.20;;;5.93;;
12163;SDS011;6145;50.192;10.064;2022-10-31T02:21:48;13.60;;;5.30;;
12163;SDS011;6145;50.192;10.064;2022-10-31T02:27:13;18.07;;;5.57;;
12163;SDS011;6145;50.192;10.064;2022-10-31T02:30:03;10.13;;;5.47;;
12163;SDS011;6145;50.192;10.064;2022-10-31T02:32:47;17.57;;;6.70;;
12163;SDS011;6145;50.192;10.064;2022-10-31T02:35:24;13.93;;;6.53;;
12163;SDS011;6145;50.192;10.064;2022-10-31T02:38:04;16.50;;;5.77;;
12163;SDS011;6145;50.192;10.064;2022-10-31T02:40:39;22.37;;;6.30;;
12163;SDS011;6145;50.192;10.064;2022-10-31T02:43:16;11.40;;;5.97;;
12163;SDS011;6145;50.192;10.064;2022-10-31T02:45:47;17.67;;;6.23;;
12163;SDS011;6145;50.192;10.064;2022-10-31T02:48:22;15.70;;;6.70;;
12163;SDS011;6145;50.192;10.064;2022-10-31T02:50:54;14.57;;;6.50;;
12163;SDS011;6145;50.192;10.064;2022-10-31T02:53:24;17.50;;;6.80;;
12163;SDS011;6145;50.192;10.064;2022-10-31T02:55:53;22.97;;;7.33;;
12163;SDS011;6145;50.192;10.064;2022-10-31T02:58:24;28.87;;;7.20;;
12163;SDS011;6145;50.192;10.064;2022-10-31T03:00:58;12.53;;;5.70;;
12163;SDS011;6145;50.192;10.064;2022-10-31T03:03:40;14.57;;;5.03;;
12163;SDS011;6145;50.192;10.064;2022-10-31T03:06:17;27.40;;;5.60;;
12163;SDS011;6145;50.192;10.064;2022-10-31T03:08:54;24.33;;;6.43;;
12163;SDS011;6145;50.192;10.064;2022-10-31T03:11:27;15.10;;;5.43;;
12163;SDS011;6145;50.192;10.064;2022-10-31T03:13:59;16.97;;;6.13;;
12163;SDS011;6145;50.192;10.064;2022-10-31T03:16:33;17.70;;;5.43;;
12163;SDS011;6145;50.192;10.064;2022-10-31T03:19:09;8.17;;;4.80;;
12163;SDS011;6145;50.192;10.064;2022-10-31T03:21:41;16.80;;;5.77;;
12163;SDS011;6145;50.192;10.064;2022-10-31T03:24:11;12.80;;;5.40;;
12163;SDS011;6145;50.192;10.064;2022-10-31T03:26:41;18.57;;;6.47;;
12163;SDS011;6145;50.192;10.064;2022-10-31T03:29:12;11.83;;;5.00;;
12163;SDS011;6145;50.192;10.064;2022-10-31T03:31:42;17.33;;;5.40;;
12163;SDS011;6145;50.192;10.064;2022-10-31T03:34:14;8.97;;;5.00;;
12163;SDS011;6145;50.192;10.064;2022-10-31T03:36:44;9.47;;;4.73;;
12163;SDS011;6145;50.192;10.064;2022-10-31T03:39:13;13.73;;;5.10;;
12163;SDS011;6145;50.192;10.064;2022-10-31T03:41:44;15.27;;;4.57;;
12163;SDS011;6145;50.192;10.064;2022-10-31T03:44:16;7.03;;;4.97;;
12163;SDS011;6145;50.192;10.064;2022-10-31T03:46:46;20.20;;;5.60;;
12163;SDS011;6145;50.192;10.064;2022-10-31T03:49:14;21.83;;;5.13;;
12163;SDS011;6145;50.192;10.064;2022-10-31T03:51:42;12.17;;;4.23;;
12163;SDS011;6145;50.192;10.064;2022-10-31T03:54:15;12.17;;;5.10;;
12163;SDS011;6145;50.192;10.064;2022-10-31T03:56:49;11.43;;;4.90;;
12163;SDS011;6145;50.192;10.064;2022-10-31T03:59:20;8.80;;;4.77;;
12163;SDS011;6145;50.192;10.064;2022-10-31T04:01:51;12.27;;;5.87;;
12163;SDS011;6145;50.192;10.064;2022-10-31T04:04:23;14.23;;;4.60;;
12163;SDS011;6145;50.192;10.064;2022-10-31T04:06:51;9.00;;;4.37;;
12163;SDS011;6145;50.192;10.064;2022-10-31T04:09:20;15.93;;;4.60;;
12163;SDS011;6145;50.192;10.064;2022-10-31T04:11:48;5.70;;;4.47;;
12163;SDS011;6145;50.192;10.064;2022-10-31T04:14:17;13.07;;;4.80;;
12163;SDS011;6145;50.192;10.064;2022-10-31T04:16:44;10.97;;;4.87;;
12163;SDS011;6145;50.192;10.064;2022-10-31T04:19:12;10.30;;;4.40;;
12163;SDS011;6145;50.192;10.064;2022-10-31T04:21:41;9.30;;;4.30;;
12163;SDS011;6145;50.192;10.064;2022-10-31T04:24:09;27.03;;;6.00;;
12163;SDS011;6145;50.192;10.064;2022-10-31T04:26:36;13.00;;;5.47;;
12163;SDS011;6145;50.192;10.064;2022-10-31T04:29:02;4.93;;;4.23;;
12163;SDS011;6145;50.192;10.064;2022-10-31T04:31:29;6.80;;;4.33;;
12163;SDS011;6145;50.192;10.064;2022-10-31T04:33:56;9.87;;;4.77;;
12163;SDS011;6145;50.192;10.064;2022-10-31T04:36:23;22.50;;;6.57;;
12163;SDS011;6145;50.192;10.064;2022-10-31T04:38:51;9.37;;;4.60;;
12163;SDS011;6145;50.192;10.064;2022-10-31T04:41:18;9.30;;;4.77;;
12163;SDS011;6145;50.192;10.064;2022-10-31T04:43:45;9.83;;;4.37;;
12163;SDS011;6145;50.192;10.064;2022-10-31T04:46:11;10.73;;;5.47;;
12163;SDS011;6145;50.192;10.064;2022-10-31T04:48:38;6.37;;;4.27;;
12163;SDS011;6145;50.192;10.064;2022-10-31T04:51:05;10.77;;;5.20;;
12163;SDS011;6145;50.192;10.064;2022-10-31T04:53:32;10.57;;;5.23;;
12163;SDS011;6145;50.192;10.064;2022-10-31T04:56:00;14.13;;;5.53;;
12163;SDS011;6145;50.192;10.064;2022-10-31T04:58:27;11.30;;;4.80;;
12163;SDS011;6145;50.192;10.064;2022-10-31T05:00:54;8.17;;;4.73;;
12163;SDS011;6145;50.192;10.064;2022-10-31T05:03:22;18.23;;;5.97;;
12163;SDS011;6145;50.192;10.064;2022-10-31T05:05:49;12.00;;;4.77;;
12163;SDS011;6145;50.192;10.064;2022-10-31T05:08:16;16.37;;;5.20;;
12163;SDS011;6145;50.192;10.064;2022-10-31T05:10:42;13.10;;;5.60;;
12163;SDS011;6145;50.192;10.064;2022-10-31T05:13:10;9.30;;;4.93;;
12163;SDS011;6145;50.192;10.064;2022-10-31T05:15:39;12.93;;;4.40;;
12163;SDS011;6145;50.192;10.064;2022-10-31T05:18:09;9.07;;;4.40;;
12163;SDS011;6145;50.192;10.064;2022-10-31T05:20:36;7.27;;;4.10;;
12163;SDS011;6145;50.192;10.064;2022-10-31T05:23:02;15.77;;;4.60;;
12163;SDS011;6145;50.192;10.064;2022-10-31T05:25:29;11.70;;;4.53;;
12163;SDS011;6145;50.192;10.064;2022-10-31T05:27:56;5.83;;;4.03;;
12163;SDS011;6145;50.192;10.064;2022-10-31T05:30:25;5.10;;;4.27;;
12163;SDS011;6145;50.192;10.064;2022-10-31T05:32:53;6.57;;;3.47;;
12163;SDS011;6145;50.192;10.064;2022-10-31T05:35:21;13.37;;;4.17;;
12163;SDS011;6145;50.192;10.064;2022-10-31T05:37:50;9.73;;;4.43;;
12163;SDS011;6145;50.192;10.064;2022-10-31T05:40:18;14.60;;;4.40;;
12163;SDS011;6145;50.192;10.064;2022-10-31T05:42:45;34.50;;;5.43;;
12163;SDS011;6145;50.192;10.064;2022-10-31T05:45:14;9.03;;;3.70;;
12163;SDS011;6145;50.192;10.064;2022-10-31T05:47:49;12.57;;;4.40;;
12163;SDS011;6145;50.192;10.064;2022-10-31T05:50:20;13.00;;;3.87;;
12163;SDS011;6145;50.192;10.064;2022-10-31T05:52:53;5.07;;;3.67;;
12163;SDS011;6145;50.192;10.064;2022-10-31T05:55:21;30.87;;;5.33;;
12163;SDS011;6145;50.192;10.064;2022-10-31T05:57:47;10.20;;;4.13;;
12163;SDS011;6145;50.192;10.064;2022-10-31T06:00:14;8.07;;;3.60;;
12163;SDS011;6145;50.192;10.064;2022-10-31T06:02:41;6.90;;;4.00;;
12163;SDS011;6145;50.192;10.064;2022-10-31T06:05:09;9.07;;;4.70;;
12163;SDS011;6145;50.192;10.064;2022-10-31T06:07:36;6.77;;;4.50;;
12163;SDS011;6145;50.192;10.064;2022-10-31T06:10:04;8.10;;;4.00;;
12163;SDS011;6145;50.192;10.064;2022-10-31T06:12:33;6.03;;;4.33;;
12163;SDS011;6145;50.192;10.064;2022-10-31T06:15:02;8.40;;;3.87;;
12163;SDS011;6145;50.192;10.064;2022-10-31T06:17:30;5.57;;;3.90;;
12163;SDS011;6145;50.192;10.064;2022-10-31T06:19:58;4.03;;;3.60;;
12163;SDS011;6145;50.192;10.064;2022-10-31T06:22:25;4.93;;;4.50;;
12163;SDS011;6145;50.192;10.064;2022-10-31T06:24:52;6.73;;;4.17;;
12163;SDS011;6145;50.192;10.064;2022-10-31T06:27:18;11.27;;;4.43;;
12163;SDS011;6145;50.192;10.064;2022-10-31T06:29:45;7.90;;;5.20;;
12163;SDS011;6145;50.192;10.064;2022-10-31T06:32:12;11.63;;;5.60;;
12163;SDS011;6145;50.192;10.064;2022-10-31T06:34:39;7.57;;;3.73;;
12163;SDS011;6145;50.192;10.064;2022-10-31T06:37:08;8.60;;;4.00;;
12163;SDS011;6145;50.192;10.064;2022-10-31T06:39:36;6.43;;;3.83;;
12163;SDS011;6145;50.192;10.064;2022-10-31T06:42:03;10.33;;;4.10;;
12163;SDS011;6145;50.192;10.064;2022-10-31T06:44:30;9.30;;;4.00;;
12163;SDS011;6145;50.192;10.064;2022-10-31T06:46:57;17.90;;;4.70;;
12163;SDS011;6145;50.192;10.064;2022-10-31T06:49:24;13.80;;;4.13;;
12163;SDS011;6145;50.192;10.064;2022-10-31T06:51:51;11.20;;;4.80;;
12163;SDS011;6145;50.192;10.064;2022-10-31T06:54:19;10.73;;;4.80;;
12163;SDS011;6145;50.192;10.064;2022-10-31T06:56:47;8.03;;;4.93;;
12163;SDS011;6145;50.192;10.064;2022-10-31T06:59:14;13.77;;;5.40;;
12163;SDS011;6145;50.192;10.064;2022-10-31T07:01:41;7.70;;;4.93;;
12163;SDS011;6145;50.192;10.064;2022-10-31T07:04:08;13.90;;;5.83;;
12163;SDS011;6145;50.192;10.064;2022-10-31T07:06:35;10.73;;;5.23;;
12163;SDS011;6145;50.192;10.064;2022-10-31T07:09:02;14.57;;;6.27;;
12163;SDS011;6145;50.192;10.064;2022-10-31T07:11:30;9.93;;;6.33;;
12163;SDS011;6145;50.192;10.064;2022-10-31T07:13:57;8.40;;;5.90;;
12163;SDS011;6145;50.192;10.064;2022-10-31T07:16:24;15.17;;;6.90;;
12163;SDS011;6145;50.192;10.064;2022-10-31T07:18:50;7.97;;;5.07;;
12163;SDS011;6145;50.192;10.064;2022-10-31T07:21:17;11.30;;;6.13;;
12163;SDS011;6145;50.192;10.064;2022-10-31T07:23:46;9.17;;;6.07;;
12163;SDS011;6145;50.192;10.064;2022-10-31T07:26:14;7.87;;;5.73;;
12163;SDS011;6145;50.192;10.064;2022-10-31T07:28:42;7.70;;;6.10;;
12163;SDS011;6145;50.192;10.064;2022-10-31T07:31:09;11.87;;;6.70;;
12163;SDS011;6145;50.192;10.064;2022-10-31T07:33:36;9.17;;;6.10;;
12163;SDS011;6145;50.192;10.064;2022-10-31T07:36:03;9.20;;;5.43;;
12163;SDS011;6145;50.192;10.064;2022-10-31T07:38:30;9.80;;;5.90;;
12163;SDS011;6145;50.192;10.064;2022-10-31T07:40:59;9.03;;;5.97;;
12163;SDS011;6145;50.192;10.064;2022-10-31T07:43:26;12.53;;;6.87;;
12163;SDS011;6145;50.192;10.064;2022-10-31T07:45:55;11.30;;;6.80;;
12163;SDS011;6145;50.192;10.064;2022-10-31T07:48:21;10.73;;;6.70;;
12163;SDS011;6145;50.192;10.064;2022-10-31T07:50:51;8.63;;;7.00;;
12163;SDS011;6145;50.192;10.064;2022-10-31T07:53:20;10.40;;;6.10;;
12163;SDS011;6145;50.192;10.064;2022-10-31T07:55:46;8.17;;;5.60;;
12163;SDS011;6145;50.192;10.064;2022-10-31T07:58:14;12.77;;;6.40;;
12163;SDS011;6145;50.192;10.064;2022-10-31T08:00:42;12.60;;;6.00;;
12163;SDS011;6145;50.192;10.064;2022-10-31T08:03:11;8.43;;;6.17;;
12163;SDS011;6145;50.192;10.064;2022-10-31T08:05:40;9.57;;;6.30;;
12163;SDS011;6145;50.192;10.064;2022-10-31T08:08:07;13.87;;;6.47;;
12163;SDS011;6145;50.192;10.064;2022-10-31T08:10:35;16.70;;;7.37;;
12163;SDS011;6145;50.192;10.064;2022-10-31T08:13:03;13.43;;;7.43;;
12163;SDS011;6145;50.192;10.064;2022-10-31T08:15:31;16.33;;;7.57;;
12163;SDS011;6145;50.192;10.064;2022-10-31T08:18:01;18.10;;;8.90;;
12163;SDS011;6145;50.192;10.064;2022-10-31T08:20:30;18.50;;;9.53;;
12163;SDS011;6145;50.192;10.064;2022-10-31T08:22:57;20.10;;;9.20;;
12163;SDS011;6145;50.192;10.064;2022-10-31T08:25:26;17.67;;;9.33;;
12163;SDS011;6145;50.192;10.064;2022-10-31T08:27:54;15.47;;;9.47;;
12163;SDS011;6145;50.192;10.064;2022-10-31T08:30:23;14.80;;;8.37;;
12163;SDS011;6145;50.192;10.064;2022-10-31T08:32:57;15.50;;;8.93;;
12163;SDS011;6145;50.192;10.064;2022-10-31T08:35:25;14.60;;;7.37;;
12163;SDS011;6145;50.192;10.064;2022-10-31T08:37:53;14.97;;;7.83;;
12163;SDS011;6145;50.192;10.064;2022-10-31T08:40:20;13.97;;;7.77;;
12163;SDS011;6145;50.192;10.064;2022-10-31T08:42:47;13.33;;;6.77;;
12163;SDS011;6145;50.192;10.064;2022-10-31T08:45:21;17.10;;;7.47;;
12163;SDS011;6145;50.192;10.064;2022-10-31T08:47:47;9.23;;;6.77;;
12163;SDS011;6145;50.192;10.064;2022-10-31T08:50:14;16.40;;;9.07;;
12163;SDS011;6145;50.192;10.064;2022-10-31T08:52:41;13.67;;;7.87;;
12163;SDS011;6145;50.192;10.064;2022-10-31T08:55:09;13.43;;;8.80;;
12163;SDS011;6145;50.192;10.064;2022-10-31T08:57:38;16.43;;;10.20;;
12163;SDS011;6145;50.192;10.064;2022-10-31T09:00:08;13.90;;;7.17;;
12163;SDS011;6145;50.192;10.064;2022-10-31T09:02:36;10.77;;;8.07;;
12163;SDS011;6145;50.192;10.064;2022-10-31T09:05:03;14.97;;;8.97;;
12163;SDS011;6145;50.192;10.064;2022-10-31T09:07:30;15.07;;;8.97;;
12163;SDS011;6145;50.192;10.064;2022-10-31T09:09:57;16.77;;;9.33;;
12163;SDS011;6145;50.192;10.064;2022-10-31T09:12:37;11.70;;;8.13;;
12163;SDS011;6145;50.192;10.064;2022-10-31T09:15:04;9.93;;;6.87;;
12163;SDS011;6145;50.192;10.064;2022-10-31T09:17:32;15.27;;;8.67;;
12163;SDS011;6145;50.192;10.064;2022-10-31T09:19:59;8.60;;;6.97;;
12163;SDS011;6145;50.192;10.064;2022-10-31T09:22:26;15.00;;;8.63;;
12163;SDS011;6145;50.192;10.064;2022-10-31T09:24:52;9.63;;;7.13;;
12163;SDS011;6145;50.192;10.064;2022-10-31T09:27:19;13.30;;;9.73;;
12163;SDS011;6145;50.192;10.064;2022-10-31T09:29:47;14.80;;;10.20;;
12163;SDS011;6145;50.192;10.064;2022-10-31T09:32:14;12.33;;;9.47;;
12163;SDS011;6145;50.192;10.064;2022-10-31T09:34:41;14.93;;;9.37;;
12163;SDS011;6145;50.192;10.064;2022-10-31T09:37:07;13.67;;;9.37;;
12163;SDS011;6145;50.192;10.064;2022-10-31T09:39:34;14.83;;;10.50;;
12163;SDS011;6145;50.192;10.064;2022-10-31T09:42:03;14.80;;;10.93;;
12163;SDS011;6145;50.192;10.064;2022-10-31T09:44:51;11.70;;;10.03;;
12163;SDS011;6145;50.192;10.064;2022-10-31T09:47:26;15.73;;;11.10;;
12163;SDS011;6145;50.192;10.064;2022-10-31T09:50:06;12.90;;;10.90;;
12163;SDS011;6145;50.192;10.064;2022-10-31T09:52:40;11.03;;;8.43;;
12163;SDS011;6145;50.192;10.064;2022-10-31T09:55:14;14.47;;;10.33;;
12163;SDS011;6145;50.192;10.064;2022-10-31T09:57:43;13.27;;;10.17;;
12163;SDS011;6145;50.192;10.064;2022-10-31T10:00:16;12.70;;;10.40;;
12163;SDS011;6145;50.192;10.064;2022-10-31T10:02:46;18.80;;;11.83;;
12163;SDS011;6145;50.192;10.064;2022-10-31T10:05:17;19.37;;;10.93;;
12163;SDS011;6145;50.192;10.064;2022-10-31T10:07:49;11.73;;;8.47;;
12163;SDS011;6145;50.192;10.064;2022-10-31T10:10:25;12.53;;;11.17;;
12163;SDS011;6145;50.192;10.064;2022-10-31T10:13:06;14.17;;;11.07;;
12163;SDS011;6145;50.192;10.064;2022-10-31T10:15:52;11.37;;;10.07;;
12163;SDS011;6145;50.192;10.064;2022-10-31T10:18:29;12.80;;;10.43;;
12163;SDS011;6145;50.192;10.064;2022-10-31T10:21:08;12.23;;;9.90;;
12163;SDS011;6145;50.192;10.064;2022-10-31T10:23:48;10.80;;;9.23;;
12163;SDS011;6145;50.192;10.064;2022-10-31T10:26:25;11.17;;;10.07;;
12163;SDS011;6145;50.192;10.064;2022-10-31T10:29:01;10.80;;;9.70;;
12163;SDS011;6145;50.192;10.064;2022-10-31T10:31:37;11.03;;;8.27;;
12163;SDS011;6145;50.192;10.064;2022-10-31T10:34:20;10.60;;;9.03;;
12163;SDS011;6145;50.192;10.064;2022-10-31T10:36:51;16.67;;;9.60;;
12163;SDS011;6145;50.192;10.064;2022-10-31T10:39:23;12.40;;;9.17;;
12163;SDS011;6145;50.192;10.064;2022-10-31T10:41:55;12.73;;;9.57;;
12163;SDS011;6145;50.192;10.064;2022-10-31T10:44:48;15.77;;;10.23;;
12163;SDS011;6145;50.192;10.064;2022-10-31T10:47:36;9.43;;;8.50;;
12163;SDS011;6145;50.192;10.064;2022-10-31T10:50:08;15.77;;;11.10;;
12163;SDS011;6145;50.192;10.064;2022-10-31T10:52:41;11.17;;;9.20;;
12163;SDS011;6145;50.192;10.064;2022-10-31T10:55:16;10.83;;;9.47;;
12163;SDS011;6145;50.192;10.064;2022-10-31T10:57:54;10.93;;;8.13;;
12163;SDS011;6145;50.192;10.064;2022-10-31T11:00:23;12.13;;;9.07;;
12163;SDS011;6145;50.192;10.064;2022-10-31T11:02:53;11.23;;;8.67;;
12163;SDS011;6145;50.192;10.064;2022-10-31T11:05:24;11.97;;;8.80;;
12163;SDS011;6145;50.192;10.064;2022-10-31T11:07:56;11.33;;;10.20;;
12163;SDS011;6145;50.192;10.064;2022-10-31T11:10:23;9.80;;;8.23;;
12163;SDS011;6145;50.192;10.064;2022-10-31T11:15:53;12.80;;;9.00;;
12163;SDS011;6145;50.192;10.064;2022-10-31T11:18:25;11.70;;;9.83;;
12163;SDS011;6145;50.192;10.064;2022-10-31T11:20:54;10.20;;;8.97;;
12163;SDS011;6145;50.192;10.064;2022-10-31T11:23:22;12.53;;;9.97;;
12163;SDS011;6145;50.192;10.064;2022-10-31T11:25:51;14.07;;;10.20;;
12163;SDS011;6145;50.192;10.064;2022-10-31T11:28:20;11.10;;;9.17;;
12163;SDS011;6145;50.192;10.064;2022-10-31T11:30:48;13.43;;;10.40;;
12163;SDS011;6145;50.192;10.064;2022-10-31T11:33:18;10.53;;;9.03;;
12163;SDS011;6145;50.192;10.064;2022-10-31T11:35:48;10.23;;;8.87;;
12163;SDS011;6145;50.192;10.064;2022-10-31T11:38:16;13.63;;;9.90;;
12163;SDS011;6145;50.192;10.064;2022-10-31T11:40:52;11.53;;;8.53;;
12163;SDS011;6145;50.192;10.064;2022-10-31T11:43:21;17.20;;;9.80;;
12163;SDS011;6145;50.192;10.064;2022-10-31T11:45:48;15.33;;;9.20;;
12163;SDS011;6145;50.192;10.064;2022-10-31T11:48:16;10.33;;;8.77;;
12163;SDS011;6145;50.192;10.064;2022-10-31T11:50:49;9.70;;;8.73;;
12163;SDS011;6145;50.192;10.064;2022-10-31T11:53:18;16.63;;;10.50;;
12163;SDS011;6145;50.192;10.064;2022-10-31T11:55:47;10.20;;;8.73;;
12163;SDS011;6145;50.192;10.064;2022-10-31T11:58:26;11.97;;;9.43;;
12163;SDS011;6145;50.192;10.064;2022-10-31T12:00:54;17.00;;;9.50;;
12163;SDS011;6145;50.192;10.064;2022-10-31T12:03:42;11.87;;;8.90;;
12163;SDS011;6145;50.192;10.064;2022-10-31T12:06:20;13.83;;;9.30;;
12163;SDS011;6145;50.192;10.064;2022-10-31T12:08:50;13.13;;;9.03;;
12163;SDS011;6145;50.192;10.064;2022-10-31T12:11:22;12.97;;;9.40;;
12163;SDS011;6145;50.192;10.064;2022-10-31T12:14:02;12.80;;;10.17;;
12163;SDS011;6145;50.192;10.064;2022-10-31T12:16:36;12.57;;;9.10;;
12163;SDS011;6145;50.192;10.064;2022-10-31T12:19:10;12.83;;;9.50;;
12163;SDS011;6145;50.192;10.064;2022-10-31T12:21:50;13.33;;;10.00;;
12163;SDS011;6145;50.192;10.064;2022-10-31T12:24:37;14.00;;;10.03;;
12163;SDS011;6145;50.192;10.064;2022-10-31T12:27:27;14.37;;;9.67;;
12163;SDS011;6145;50.192;10.064;2022-10-31T12:30:10;9.17;;;8.17;;
12163;SDS011;6145;50.192;10.064;2022-10-31T12:32:54;15.50;;;9.60;;
12163;SDS011;6145;50.192;10.064;2022-10-31T12:35:45;16.27;;;10.13;;
12163;SDS011;6145;50.192;10.064;2022-10-31T12:38:22;10.60;;;8.77;;
12163;SDS011;6145;50.192;10.064;2022-10-31T12:44:45;9.70;;;7.80;;
12163;SDS011;6145;50.192;10.064;2022-10-31T12:47:33;10.87;;;8.97;;
12163;SDS011;6145;50.192;10.064;2022-10-31T12:50:22;13.23;;;9.00;;
12163;SDS011;6145;50.192;10.064;2022-10-31T12:53:00;10.70;;;8.83;;
12163;SDS011;6145;50.192;10.064;2022-10-31T12:55:45;15.03;;;8.93;;
12163;SDS011;6145;50.192;10.064;2022-10-31T12:58:22;12.13;;;7.97;;
12163;SDS011;6145;50.192;10.064;2022-10-31T13:00:54;11.70;;;8.43;;
12163;SDS011;6145;50.192;10.064;2022-10-31T13:03:30;13.47;;;8.97;;
12163;SDS011;6145;50.192;10.064;2022-10-31T13:06:03;14.50;;;9.03;;
12163;SDS011;6145;50.192;10.064;2022-10-31T13:08:35;12.13;;;9.23;;
12163;SDS011;6145;50.192;10.064;2022-10-31T13:11:08;11.83;;;8.40;;
12163;SDS011;6145;50.192;10.064;2022-10-31T13:13:39;9.97;;;8.13;;
12163;SDS011;6145;50.192;10.064;2022-10-31T13:16:10;18.60;;;9.63;;
12163;SDS011;6145;50.192;10.064;2022-10-31T13:18:40;12.00;;;8.60;;
12163;SDS011;6145;50.192;10.064;2022-10-31T13:21:13;14.30;;;9.27;;
12163;SDS011;6145;50.192;10.064;2022-10-31T13:23:44;9.13;;;8.13;;
12163;SDS011;6145;50.192;10.064;2022-10-31T13:26:18;8.83;;;7.77;;
12163;SDS011;6145;50.192;10.064;2022-10-31T13:28:50;12.40;;;9.40;;
12163;SDS011;6145;50.192;10.064;2022-10-31T13:31:23;12.80;;;8.30;;
12163;SDS011;6145;50.192;10.064;2022-10-31T13:33:51;11.80;;;8.13;;
12163;SDS011;6145;50.192;10.064;2022-10-31T13:36:22;11.80;;;8.00;;
12163;SDS011;6145;50.192;10.064;2022-10-31T13:38:56;13.57;;;7.80;;
12163;SDS011;6145;50.192;10.064;2022-10-31T13:41:30;8.17;;;7.37;;
12163;SDS011;6145;50.192;10.064;2022-10-31T13:44:05;8.83;;;6.80;;
12163;SDS011;6145;50.192;10.064;2022-10-31T13:46:39;11.87;;;8.87;;
12163;SDS011;6145;50.192;10.064;2022-10-31T13:49:21;12.30;;;8.70;;
12163;SDS011;6145;50.192;10.064;2022-10-31T13:51:52;15.50;;;9.10;;
12163;SDS011;6145;50.192;10.064;2022-10-31T13:54:31;11.53;;;8.27;;
12163;SDS011;6145;50.192;10.064;2022-10-31T13:57:00;11.27;;;7.77;;
12163;SDS011;6145;50.192;10.064;2022-10-31T13:59:27;11.50;;;7.87;;
12163;SDS011;6145;50.192;10.064;2022-10-31T14:01:57;10.47;;;7.50;;
12163;SDS011;6145;50.192;10.064;2022-10-31T14:04:29;9.93;;;7.70;;
12163;SDS011;6145;50.192;10.064;2022-10-31T14:07:05;9.30;;;6.53;;
12163;SDS011;6145;50.192;10.064;2022-10-31T14:09:35;8.33;;;7.13;;
12163;SDS011;6145;50.192;10.064;2022-10-31T14:12:07;11.80;;;7.13;;
12163;SDS011;6145;50.192;10.064;2022-10-31T14:14:43;10.20;;;7.80;;
12163;SDS011;6145;50.192;10.064;2022-10-31T14:17:17;10.10;;;7.43;;
12163;SDS011;6145;50.192;10.064;2022-10-31T14:19:57;8.93;;;7.33;;
12163;SDS011;6145;50.192;10.064;2022-10-31T14:22:28;8.73;;;6.40;;
12163;SDS011;6145;50.192;10.064;2022-10-31T14:24:56;8.40;;;6.77;;
12163;SDS011;6145;50.192;10.064;2022-10-31T14:27:34;10.13;;;7.37;;
12163;SDS011;6145;50.192;10.064;2022-10-31T14:30:15;7.37;;;6.47;;
12163;SDS011;6145;50.192;10.064;2022-10-31T14:32:49;8.63;;;6.73;;
12163;SDS011;6145;50.192;10.064;2022-10-31T14:35:19;9.37;;;6.53;;
12163;SDS011;6145;50.192;10.064;2022-10-31T14:40:48;11.67;;;7.00;;
12163;SDS011;6145;50.192;10.064;2022-10-31T14:43:35;9.80;;;7.33;;
12163;SDS011;6145;50.192;10.064;2022-10-31T14:46:14;9.93;;;6.60;;
12163;SDS011;6145;50.192;10.064;2022-10-31T14:48:58;10.23;;;6.37;;
12163;SDS011;6145;50.192;10.064;2022-10-31T14:51:33;9.57;;;6.80;;
12163;SDS011;6145;50.192;10.064;2022-10-31T14:54:03;9.77;;;7.13;;
12163;SDS011;6145;50.192;10.064;2022-10-31T14:56:33;8.47;;;6.07;;
12163;SDS011;6145;50.192;10.064;2022-10-31T14:59:04;10.70;;;6.70;;
12163;SDS011;6145;50.192;10.064;2022-10-31T15:01:35;8.23;;;6.73;;
12163;SDS011;6145;50.192;10.064;2022-10-31T15:04:05;9.60;;;6.17;;
12163;SDS011;6145;50.192;10.064;2022-10-31T15:06:39;9.17;;;6.20;;
12163;SDS011;6145;50.192;10.064;2022-10-31T15:09:20;9.13;;;5.93;;
12163;SDS011;6145;50.192;10.064;2022-10-31T15:11:48;10.17;;;6.10;;